<?xml version="1.0" encoding="utf-8"?>
<gpx xmlns:xsi="http://www.w3.org/2001/XMLSchema-instance" xmlns:xsd="http://www.w3.org/2001/XMLSchema" version="1.1" creator="Shapelink.com" xmlns="http://www.topografix.com/GPX/1/1" xmlns:gpxtpx="http://www.garmin.com/xmlschemas/TrackPointExtension/v1">
  <metadata>
    <name>Esquí nórdico 8.41 km, 2020-01-01</name>
    <desc></desc>
    <author><name>Per Rooth</name></author> 
    <time>2020-01-01T15:52:59Z</time>
  </metadata>
  <trk>
    <name>Esquí nórdico 8.41 km, 2020-01-01</name>
    <trkseg>
      <trkpt lat="61.303327822654" lon="12.242469113419">
        <ele>441.2</ele>
        <time>2020-01-01T15:52:59Z</time>
      </trkpt>
      <trkpt lat="61.303337797115" lon="12.242565840545">
        <ele>441.4</ele>
        <time>2020-01-01T15:53:01Z</time>
      </trkpt>
      <trkpt lat="61.303364535376" lon="12.242932381032">
        <ele>441.2</ele>
        <time>2020-01-01T15:53:05Z</time>
      </trkpt>
      <trkpt lat="61.303337126563" lon="12.243182999842">
        <ele>440.6</ele>
        <time>2020-01-01T15:53:07Z</time>
      </trkpt>
      <trkpt lat="61.303261605644" lon="12.243387266745">
        <ele>439.6</ele>
        <time>2020-01-01T15:53:09Z</time>
      </trkpt>
      <trkpt lat="61.303210392235" lon="12.243447113511">
        <ele>439.2</ele>
        <time>2020-01-01T15:53:10Z</time>
      </trkpt>
      <trkpt lat="61.303155826066" lon="12.243477707446">
        <ele>438.4</ele>
        <time>2020-01-01T15:53:11Z</time>
      </trkpt>
      <trkpt lat="61.303104528838" lon="12.243476366342">
        <ele>437.8</ele>
        <time>2020-01-01T15:53:12Z</time>
      </trkpt>
      <trkpt lat="61.302645116899" lon="12.243530681054">
        <ele>438</ele>
        <time>2020-01-01T15:53:28Z</time>
      </trkpt>
      <trkpt lat="61.3024589549" lon="12.243645932179">
        <ele>438.8</ele>
        <time>2020-01-01T15:53:35Z</time>
      </trkpt>
      <trkpt lat="61.302246138459" lon="12.243760931847">
        <ele>437.8</ele>
        <time>2020-01-01T15:53:42Z</time>
      </trkpt>
      <trkpt lat="61.302191907566" lon="12.243773420878">
        <ele>437.8</ele>
        <time>2020-01-01T15:53:44Z</time>
      </trkpt>
      <trkpt lat="61.302003650092" lon="12.243766212444">
        <ele>438.8</ele>
        <time>2020-01-01T15:53:54Z</time>
      </trkpt>
      <trkpt lat="61.301714223085" lon="12.243753052861">
        <ele>439.8</ele>
        <time>2020-01-01T15:54:06Z</time>
      </trkpt>
      <trkpt lat="61.30126453415" lon="12.24407416345">
        <ele>439.4</ele>
        <time>2020-01-01T15:54:20Z</time>
      </trkpt>
      <trkpt lat="61.300990865115" lon="12.244131579465">
        <ele>439.2</ele>
        <time>2020-01-01T15:54:29Z</time>
      </trkpt>
      <trkpt lat="61.300529106244" lon="12.244272311566">
        <ele>440.8</ele>
        <time>2020-01-01T15:54:48Z</time>
      </trkpt>
      <trkpt lat="61.300500440146" lon="12.244313718152">
        <ele>441</ele>
        <time>2020-01-01T15:54:49Z</time>
      </trkpt>
      <trkpt lat="61.300326348083" lon="12.244572467405">
        <ele>440.6</ele>
        <time>2020-01-01T15:54:56Z</time>
      </trkpt>
      <trkpt lat="61.300096348747" lon="12.24479500685">
        <ele>440</ele>
        <time>2020-01-01T15:56:07Z</time>
      </trkpt>
      <trkpt lat="61.300061144767" lon="12.244846052621">
        <ele>440.4</ele>
        <time>2020-01-01T15:56:11Z</time>
      </trkpt>
      <trkpt lat="61.299714301745" lon="12.24539598908">
        <ele>442</ele>
        <time>2020-01-01T15:56:31Z</time>
      </trkpt>
      <trkpt lat="61.299603995941" lon="12.245437144209">
        <ele>443.2</ele>
        <time>2020-01-01T15:56:35Z</time>
      </trkpt>
      <trkpt lat="61.299154474644" lon="12.245590700617">
        <ele>443.4</ele>
        <time>2020-01-01T15:56:51Z</time>
      </trkpt>
      <trkpt lat="61.298707719374" lon="12.245730845985">
        <ele>442.2</ele>
        <time>2020-01-01T15:57:04Z</time>
      </trkpt>
      <trkpt lat="61.298680059104" lon="12.245735288392">
        <ele>442</ele>
        <time>2020-01-01T15:57:05Z</time>
      </trkpt>
      <trkpt lat="61.298351572443" lon="12.245854981924">
        <ele>443.2</ele>
        <time>2020-01-01T15:57:17Z</time>
      </trkpt>
      <trkpt lat="61.298120734917" lon="12.245949529756">
        <ele>443.8</ele>
        <time>2020-01-01T15:57:24Z</time>
      </trkpt>
      <trkpt lat="61.297661406797" lon="12.246176260151">
        <ele>443.4</ele>
        <time>2020-01-01T15:57:36Z</time>
      </trkpt>
      <trkpt lat="61.297210544396" lon="12.246328978369">
        <ele>443.4</ele>
        <time>2020-01-01T15:57:54Z</time>
      </trkpt>
      <trkpt lat="61.296863366098" lon="12.246383628357">
        <ele>444.2</ele>
        <time>2020-01-01T15:58:08Z</time>
      </trkpt>
      <trkpt lat="61.296690782777" lon="12.246411791541">
        <ele>445.4</ele>
        <time>2020-01-01T15:58:14Z</time>
      </trkpt>
      <trkpt lat="61.296230532648" lon="12.246546488674">
        <ele>446</ele>
        <time>2020-01-01T15:58:30Z</time>
      </trkpt>
      <trkpt lat="61.296201279817" lon="12.246550260529">
        <ele>445.8</ele>
        <time>2020-01-01T15:58:31Z</time>
      </trkpt>
      <trkpt lat="61.295792662192" lon="12.246678168323">
        <ele>446.4</ele>
        <time>2020-01-01T15:58:46Z</time>
      </trkpt>
      <trkpt lat="61.295695264514" lon="12.246703397842">
        <ele>447.4</ele>
        <time>2020-01-01T15:58:50Z</time>
      </trkpt>
      <trkpt lat="61.295410028457" lon="12.246784450815">
        <ele>448.6</ele>
        <time>2020-01-01T15:59:02Z</time>
      </trkpt>
      <trkpt lat="61.294934104175" lon="12.246884446882">
        <ele>447.6</ele>
        <time>2020-01-01T15:59:16Z</time>
      </trkpt>
      <trkpt lat="61.294894373969" lon="12.246886626176">
        <ele>447.6</ele>
        <time>2020-01-01T15:59:17Z</time>
      </trkpt>
      <trkpt lat="61.2944290947" lon="12.246996512885">
        <ele>448.4</ele>
        <time>2020-01-01T15:59:32Z</time>
      </trkpt>
      <trkpt lat="61.294059788186" lon="12.247124085403">
        <ele>448.6</ele>
        <time>2020-01-01T15:59:46Z</time>
      </trkpt>
      <trkpt lat="61.293891731091" lon="12.247197846123">
        <ele>449.6</ele>
        <time>2020-01-01T15:59:54Z</time>
      </trkpt>
      <trkpt lat="61.293743120004" lon="12.24725593269">
        <ele>450.8</ele>
        <time>2020-01-01T16:00:01Z</time>
      </trkpt>
      <trkpt lat="61.29367556189" lon="12.247274289051">
        <ele>451.4</ele>
        <time>2020-01-01T16:00:04Z</time>
      </trkpt>
      <trkpt lat="61.293518904179" lon="12.247322820252">
        <ele>451.8</ele>
        <time>2020-01-01T16:00:11Z</time>
      </trkpt>
      <trkpt lat="61.293332574542" lon="12.247425079432">
        <ele>453</ele>
        <time>2020-01-01T16:00:18Z</time>
      </trkpt>
      <trkpt lat="61.293028311572" lon="12.247586766283">
        <ele>454</ele>
        <time>2020-01-01T16:00:29Z</time>
      </trkpt>
      <trkpt lat="61.292572336212" lon="12.247741747614">
        <ele>454.4</ele>
        <time>2020-01-01T16:00:45Z</time>
      </trkpt>
      <trkpt lat="61.29211988125" lon="12.247761864174">
        <ele>454</ele>
        <time>2020-01-01T16:00:59Z</time>
      </trkpt>
      <trkpt lat="61.29172677014" lon="12.24776387583">
        <ele>455</ele>
        <time>2020-01-01T16:01:16Z</time>
      </trkpt>
      <trkpt lat="61.291520826857" lon="12.247830260478">
        <ele>456</ele>
        <time>2020-01-01T16:01:25Z</time>
      </trkpt>
      <trkpt lat="61.291083794591" lon="12.248158244225">
        <ele>457</ele>
        <time>2020-01-01T16:01:39Z</time>
      </trkpt>
      <trkpt lat="61.290636368769" lon="12.248459824987">
        <ele>456.2</ele>
        <time>2020-01-01T16:01:52Z</time>
      </trkpt>
      <trkpt lat="61.29021802814" lon="12.248808931122">
        <ele>456.2</ele>
        <time>2020-01-01T16:02:06Z</time>
      </trkpt>
      <trkpt lat="61.289795161285" lon="12.249124342019">
        <ele>456.4</ele>
        <time>2020-01-01T16:02:20Z</time>
      </trkpt>
      <trkpt lat="61.28935385425" lon="12.249451236119">
        <ele>457</ele>
        <time>2020-01-01T16:02:34Z</time>
      </trkpt>
      <trkpt lat="61.289322254487" lon="12.249479399303">
        <ele>457</ele>
        <time>2020-01-01T16:02:35Z</time>
      </trkpt>
      <trkpt lat="61.288904165315" lon="12.24984174884">
        <ele>456.2</ele>
        <time>2020-01-01T16:02:48Z</time>
      </trkpt>
      <trkpt lat="61.288491608197" lon="12.250333934008">
        <ele>455.2</ele>
        <time>2020-01-01T16:03:00Z</time>
      </trkpt>
      <trkpt lat="61.288459421701" lon="12.250377016974">
        <ele>455</ele>
        <time>2020-01-01T16:03:01Z</time>
      </trkpt>
      <trkpt lat="61.288078464346" lon="12.250936089704">
        <ele>454.2</ele>
        <time>2020-01-01T16:03:14Z</time>
      </trkpt>
      <trkpt lat="61.28771854556" lon="12.25149382133">
        <ele>453.6</ele>
        <time>2020-01-01T16:03:25Z</time>
      </trkpt>
      <trkpt lat="61.287507740775" lon="12.251806047105">
        <ele>452.6</ele>
        <time>2020-01-01T16:03:31Z</time>
      </trkpt>
      <trkpt lat="61.287320572948" lon="12.252057252648">
        <ele>452.2</ele>
        <time>2020-01-01T16:03:36Z</time>
      </trkpt>
      <trkpt lat="61.287133991854" lon="12.25231021839">
        <ele>451.4</ele>
        <time>2020-01-01T16:03:41Z</time>
      </trkpt>
      <trkpt lat="61.286724955134" lon="12.252789076337">
        <ele>450.4</ele>
        <time>2020-01-01T16:03:52Z</time>
      </trkpt>
      <trkpt lat="61.286603920498" lon="12.252849090741">
        <ele>450.4</ele>
        <time>2020-01-01T16:03:55Z</time>
      </trkpt>
      <trkpt lat="61.28618298148" lon="12.25288856949">
        <ele>451.4</ele>
        <time>2020-01-01T16:04:08Z</time>
      </trkpt>
      <trkpt lat="61.285746116852" lon="12.253138936843">
        <ele>452</ele>
        <time>2020-01-01T16:04:21Z</time>
      </trkpt>
      <trkpt lat="61.285311934432" lon="12.253484354942">
        <ele>451.4</ele>
        <time>2020-01-01T16:04:35Z</time>
      </trkpt>
      <trkpt lat="61.285102303113" lon="12.25358929633">
        <ele>451.8</ele>
        <time>2020-01-01T16:04:42Z</time>
      </trkpt>
      <trkpt lat="61.28465077016" lon="12.253888697798">
        <ele>451.8</ele>
        <time>2020-01-01T16:04:57Z</time>
      </trkpt>
      <trkpt lat="61.284525963669" lon="12.253959692491">
        <ele>452.6</ele>
        <time>2020-01-01T16:05:01Z</time>
      </trkpt>
      <trkpt lat="61.284104940832" lon="12.254278623786">
        <ele>452</ele>
        <time>2020-01-01T16:05:13Z</time>
      </trkpt>
      <trkpt lat="61.284037047442" lon="12.254323383132">
        <ele>451.4</ele>
        <time>2020-01-01T16:05:15Z</time>
      </trkpt>
      <trkpt lat="61.28358207791" lon="12.254656144562">
        <ele>451.8</ele>
        <time>2020-01-01T16:05:28Z</time>
      </trkpt>
      <trkpt lat="61.283164240195" lon="12.254995946788">
        <ele>451.6</ele>
        <time>2020-01-01T16:05:41Z</time>
      </trkpt>
      <trkpt lat="61.282734500182" lon="12.255262658846">
        <ele>452.4</ele>
        <time>2020-01-01T16:05:55Z</time>
      </trkpt>
      <trkpt lat="61.282512798927" lon="12.255392745934">
        <ele>453.4</ele>
        <time>2020-01-01T16:06:03Z</time>
      </trkpt>
      <trkpt lat="61.282075347566" lon="12.255724501536">
        <ele>453</ele>
        <time>2020-01-01T16:06:16Z</time>
      </trkpt>
      <trkpt lat="61.281636555101" lon="12.256032368723">
        <ele>453.2</ele>
        <time>2020-01-01T16:06:31Z</time>
      </trkpt>
      <trkpt lat="61.281242857258" lon="12.256471747921">
        <ele>452.8</ele>
        <time>2020-01-01T16:06:43Z</time>
      </trkpt>
      <trkpt lat="61.280974301182" lon="12.256958065759">
        <ele>452.4</ele>
        <time>2020-01-01T16:06:53Z</time>
      </trkpt>
      <trkpt lat="61.280704990735" lon="12.257375903474">
        <ele>453.4</ele>
        <time>2020-01-01T16:07:05Z</time>
      </trkpt>
      <trkpt lat="61.280273322885" lon="12.257662564454">
        <ele>453.8</ele>
        <time>2020-01-01T16:07:20Z</time>
      </trkpt>
      <trkpt lat="61.280123370694" lon="12.257761722331">
        <ele>454.6</ele>
        <time>2020-01-01T16:07:27Z</time>
      </trkpt>
      <trkpt lat="61.279817431344" lon="12.257968084709">
        <ele>455.8</ele>
        <time>2020-01-01T16:07:41Z</time>
      </trkpt>
      <trkpt lat="61.27955876591" lon="12.258131280302">
        <ele>456.8</ele>
        <time>2020-01-01T16:07:52Z</time>
      </trkpt>
      <trkpt lat="61.279323485977" lon="12.258378546352">
        <ele>458</ele>
        <time>2020-01-01T16:08:00Z</time>
      </trkpt>
      <trkpt lat="61.278917885836" lon="12.258810298021">
        <ele>457.2</ele>
        <time>2020-01-01T16:08:12Z</time>
      </trkpt>
      <trkpt lat="61.278587974252" lon="12.259115985914">
        <ele>456.8</ele>
        <time>2020-01-01T16:08:21Z</time>
      </trkpt>
      <trkpt lat="61.278405332651" lon="12.2592412115">
        <ele>457.8</ele>
        <time>2020-01-01T16:08:26Z</time>
      </trkpt>
      <trkpt lat="61.278265354921" lon="12.259331484563">
        <ele>456.8</ele>
        <time>2020-01-01T16:08:30Z</time>
      </trkpt>
      <trkpt lat="61.277819186384" lon="12.259560226614">
        <ele>457.6</ele>
        <time>2020-01-01T16:08:45Z</time>
      </trkpt>
      <trkpt lat="61.277721956344" lon="12.259587635427">
        <ele>458</ele>
        <time>2020-01-01T16:08:48Z</time>
      </trkpt>
      <trkpt lat="61.277320211877" lon="12.259754770513">
        <ele>459</ele>
        <time>2020-01-01T16:09:02Z</time>
      </trkpt>
      <trkpt lat="61.276874127159" lon="12.259958534502">
        <ele>459.8</ele>
        <time>2020-01-01T16:09:17Z</time>
      </trkpt>
      <trkpt lat="61.276724510244" lon="12.260037240543">
        <ele>460</ele>
        <time>2020-01-01T16:09:23Z</time>
      </trkpt>
      <trkpt lat="61.276422678025" lon="12.26020764457">
        <ele>461</ele>
        <time>2020-01-01T16:09:33Z</time>
      </trkpt>
      <trkpt lat="61.275959997145" lon="12.260446025806">
        <ele>460.2</ele>
        <time>2020-01-01T16:09:47Z</time>
      </trkpt>
      <trkpt lat="61.275899982741" lon="12.260470668592">
        <ele>460</ele>
        <time>2020-01-01T16:09:49Z</time>
      </trkpt>
      <trkpt lat="61.275537297928" lon="12.260643335732">
        <ele>461</ele>
        <time>2020-01-01T16:10:02Z</time>
      </trkpt>
      <trkpt lat="61.275384160615" lon="12.260702511946">
        <ele>462</ele>
        <time>2020-01-01T16:10:10Z</time>
      </trkpt>
      <trkpt lat="61.275244769618" lon="12.260735201356">
        <ele>463.2</ele>
        <time>2020-01-01T16:10:17Z</time>
      </trkpt>
      <trkpt lat="61.275201519014" lon="12.260743583256">
        <ele>463.4</ele>
        <time>2020-01-01T16:10:19Z</time>
      </trkpt>
      <trkpt lat="61.274880911339" lon="12.260856152173">
        <ele>464.2</ele>
        <time>2020-01-01T16:10:30Z</time>
      </trkpt>
      <trkpt lat="61.274526440788" lon="12.261007110192">
        <ele>465.2</ele>
        <time>2020-01-01T16:10:42Z</time>
      </trkpt>
      <trkpt lat="61.274218992696" lon="12.261148429026">
        <ele>464</ele>
        <time>2020-01-01T16:10:51Z</time>
      </trkpt>
      <trkpt lat="61.273768214114" lon="12.26129729157">
        <ele>465.2</ele>
        <time>2020-01-01T16:11:09Z</time>
      </trkpt>
      <trkpt lat="61.273455988339" lon="12.261404915166">
        <ele>466.2</ele>
        <time>2020-01-01T16:11:22Z</time>
      </trkpt>
      <trkpt lat="61.273318106084" lon="12.261435257644">
        <ele>467.2</ele>
        <time>2020-01-01T16:11:28Z</time>
      </trkpt>
      <trkpt lat="61.273176954888" lon="12.261446824666">
        <ele>468.4</ele>
        <time>2020-01-01T16:11:34Z</time>
      </trkpt>
      <trkpt lat="61.273015687132" lon="12.261486135777">
        <ele>469.4</ele>
        <time>2020-01-01T16:11:41Z</time>
      </trkpt>
      <trkpt lat="61.272658869649" lon="12.261651678302">
        <ele>470.6</ele>
        <time>2020-01-01T16:11:55Z</time>
      </trkpt>
      <trkpt lat="61.272517718453" lon="12.261705657738">
        <ele>471.6</ele>
        <time>2020-01-01T16:12:01Z</time>
      </trkpt>
      <trkpt lat="61.272339016345" lon="12.261828117297">
        <ele>472.6</ele>
        <time>2020-01-01T16:12:09Z</time>
      </trkpt>
      <trkpt lat="61.27214413717" lon="12.261924425328">
        <ele>473.6</ele>
        <time>2020-01-01T16:12:19Z</time>
      </trkpt>
      <trkpt lat="61.271814309405" lon="12.262030959277">
        <ele>474.8</ele>
        <time>2020-01-01T16:12:33Z</time>
      </trkpt>
      <trkpt lat="61.271353640181" lon="12.262181246744">
        <ele>475.2</ele>
        <time>2020-01-01T16:12:51Z</time>
      </trkpt>
      <trkpt lat="61.270977209052" lon="12.262263221726">
        <ele>475.8</ele>
        <time>2020-01-01T16:13:06Z</time>
      </trkpt>
      <trkpt lat="61.270810660699" lon="12.262296330231">
        <ele>476.8</ele>
        <time>2020-01-01T16:13:13Z</time>
      </trkpt>
      <trkpt lat="61.2706747901" lon="12.262324996329">
        <ele>477.8</ele>
        <time>2020-01-01T16:13:19Z</time>
      </trkpt>
      <trkpt lat="61.270393325898" lon="12.262338072093">
        <ele>478.8</ele>
        <time>2020-01-01T16:13:30Z</time>
      </trkpt>
      <trkpt lat="61.269945900076" lon="12.262410324071">
        <ele>478.2</ele>
        <time>2020-01-01T16:13:44Z</time>
      </trkpt>
      <trkpt lat="61.269625292401" lon="12.262539656788">
        <ele>480</ele>
        <time>2020-01-01T16:13:56Z</time>
      </trkpt>
      <trkpt lat="61.269458660229" lon="12.262616937906">
        <ele>481.4</ele>
        <time>2020-01-01T16:14:03Z</time>
      </trkpt>
      <trkpt lat="61.26925657262" lon="12.26270042163">
        <ele>482.4</ele>
        <time>2020-01-01T16:14:11Z</time>
      </trkpt>
      <trkpt lat="61.268941580818" lon="12.262725232054">
        <ele>483.4</ele>
        <time>2020-01-01T16:14:23Z</time>
      </trkpt>
      <trkpt lat="61.268714347509" lon="12.262712240109">
        <ele>484.6</ele>
        <time>2020-01-01T16:14:32Z</time>
      </trkpt>
      <trkpt lat="61.268547212423" lon="12.262659434139">
        <ele>485.8</ele>
        <time>2020-01-01T16:14:40Z</time>
      </trkpt>
      <trkpt lat="61.268357446207" lon="12.262598749183">
        <ele>486.8</ele>
        <time>2020-01-01T16:14:51Z</time>
      </trkpt>
      <trkpt lat="61.268226018015" lon="12.262586511609">
        <ele>487.8</ele>
        <time>2020-01-01T16:14:59Z</time>
      </trkpt>
      <trkpt lat="61.268084196267" lon="12.262558013149">
        <ele>488.8</ele>
        <time>2020-01-01T16:15:05Z</time>
      </trkpt>
      <trkpt lat="61.267643308327" lon="12.262394398461">
        <ele>489.6</ele>
        <time>2020-01-01T16:15:20Z</time>
      </trkpt>
      <trkpt lat="61.267618414084" lon="12.262384675457">
        <ele>490</ele>
        <time>2020-01-01T16:15:21Z</time>
      </trkpt>
      <trkpt lat="61.267153386272" lon="12.262309908909">
        <ele>490.2</ele>
        <time>2020-01-01T16:15:37Z</time>
      </trkpt>
      <trkpt lat="61.266775697858" lon="12.262443516395">
        <ele>491</ele>
        <time>2020-01-01T16:15:55Z</time>
      </trkpt>
      <trkpt lat="61.266640330173" lon="12.262496657641">
        <ele>492.2</ele>
        <time>2020-01-01T16:16:12Z</time>
      </trkpt>
      <trkpt lat="61.266624823658" lon="12.262504704265">
        <ele>492.8</ele>
        <time>2020-01-01T16:16:13Z</time>
      </trkpt>
      <trkpt lat="61.266608227496" lon="12.26251182888">
        <ele>493.4</ele>
        <time>2020-01-01T16:16:14Z</time>
      </trkpt>
      <trkpt lat="61.266552152585" lon="12.262541500806">
        <ele>494.4</ele>
        <time>2020-01-01T16:16:17Z</time>
      </trkpt>
      <trkpt lat="61.266475039105" lon="12.262600928477">
        <ele>495.6</ele>
        <time>2020-01-01T16:16:21Z</time>
      </trkpt>
      <trkpt lat="61.266355932306" lon="12.262680975622">
        <ele>496.6</ele>
        <time>2020-01-01T16:16:27Z</time>
      </trkpt>
      <trkpt lat="61.266212685635" lon="12.262796981118">
        <ele>497.8</ele>
        <time>2020-01-01T16:16:33Z</time>
      </trkpt>
      <trkpt lat="61.266111264645" lon="12.26291332189">
        <ele>499</ele>
        <time>2020-01-01T16:16:37Z</time>
      </trkpt>
      <trkpt lat="61.265982853937" lon="12.263141141932">
        <ele>499</ele>
        <time>2020-01-01T16:16:45Z</time>
      </trkpt>
      <trkpt lat="61.266086957135" lon="12.262900246126">
        <ele>499</ele>
        <time>2020-01-01T16:17:36Z</time>
      </trkpt>
      <trkpt lat="61.266503621384" lon="12.26250344698">
        <ele>498.6</ele>
        <time>2020-01-01T16:17:47Z</time>
      </trkpt>
      <trkpt lat="61.266645778408" lon="12.262433709572">
        <ele>497.6</ele>
        <time>2020-01-01T16:17:49Z</time>
      </trkpt>
      <trkpt lat="61.266797742255" lon="12.262373695168">
        <ele>495.6</ele>
        <time>2020-01-01T16:17:51Z</time>
      </trkpt>
      <trkpt lat="61.266878292314" lon="12.262352405142">
        <ele>493.6</ele>
        <time>2020-01-01T16:17:52Z</time>
      </trkpt>
      <trkpt lat="61.266957165993" lon="12.262323906682">
        <ele>491.2</ele>
        <time>2020-01-01T16:17:53Z</time>
      </trkpt>
      <trkpt lat="61.267044253934" lon="12.26229976681">
        <ele>490</ele>
        <time>2020-01-01T16:17:54Z</time>
      </trkpt>
      <trkpt lat="61.267212311029" lon="12.262287026322">
        <ele>489.6</ele>
        <time>2020-01-01T16:17:56Z</time>
      </trkpt>
      <trkpt lat="61.26736729236" lon="12.262322062664">
        <ele>491.6</ele>
        <time>2020-01-01T16:17:58Z</time>
      </trkpt>
      <trkpt lat="61.267797535287" lon="12.262493891614">
        <ele>491.8</ele>
        <time>2020-01-01T16:18:06Z</time>
      </trkpt>
      <trkpt lat="61.268262060185" lon="12.262568741981">
        <ele>490.6</ele>
        <time>2020-01-01T16:18:17Z</time>
      </trkpt>
      <trkpt lat="61.268490886055" lon="12.262628253471">
        <ele>490.6</ele>
        <time>2020-01-01T16:18:22Z</time>
      </trkpt>
      <trkpt lat="61.268700936469" lon="12.26267946688">
        <ele>489.4</ele>
        <time>2020-01-01T16:18:26Z</time>
      </trkpt>
      <trkpt lat="61.268927750683" lon="12.262751299763">
        <ele>488.2</ele>
        <time>2020-01-01T16:18:30Z</time>
      </trkpt>
      <trkpt lat="61.269154648716" lon="12.262761777138">
        <ele>487</ele>
        <time>2020-01-01T16:18:34Z</time>
      </trkpt>
      <trkpt lat="61.269349527891" lon="12.262700924544">
        <ele>485.8</ele>
        <time>2020-01-01T16:18:38Z</time>
      </trkpt>
      <trkpt lat="61.269600984891" lon="12.262566143592">
        <ele>484.8</ele>
        <time>2020-01-01T16:18:43Z</time>
      </trkpt>
      <trkpt lat="61.26982989458" lon="12.262478049823">
        <ele>483.8</ele>
        <time>2020-01-01T16:18:47Z</time>
      </trkpt>
      <trkpt lat="61.270053020758" lon="12.262418873609">
        <ele>482.6</ele>
        <time>2020-01-01T16:18:51Z</time>
      </trkpt>
      <trkpt lat="61.270227448097" lon="12.262414347383">
        <ele>481.4</ele>
        <time>2020-01-01T16:18:55Z</time>
      </trkpt>
      <trkpt lat="61.270696247764" lon="12.262331115116">
        <ele>481</ele>
        <time>2020-01-01T16:19:07Z</time>
      </trkpt>
      <trkpt lat="61.270933623172" lon="12.262274788748">
        <ele>480.4</ele>
        <time>2020-01-01T16:19:12Z</time>
      </trkpt>
      <trkpt lat="61.271185750724" lon="12.262192646128">
        <ele>479.2</ele>
        <time>2020-01-01T16:19:17Z</time>
      </trkpt>
      <trkpt lat="61.271375349302" lon="12.262148305877">
        <ele>478</ele>
        <time>2020-01-01T16:19:21Z</time>
      </trkpt>
      <trkpt lat="61.271791762094" lon="12.261985529379">
        <ele>477</ele>
        <time>2020-01-01T16:19:31Z</time>
      </trkpt>
      <trkpt lat="61.271986305993" lon="12.261907912985">
        <ele>476.6</ele>
        <time>2020-01-01T16:19:36Z</time>
      </trkpt>
      <trkpt lat="61.272366928072" lon="12.261706160652">
        <ele>476</ele>
        <time>2020-01-01T16:19:45Z</time>
      </trkpt>
      <trkpt lat="61.272727014496" lon="12.261500301188">
        <ele>474.8</ele>
        <time>2020-01-01T16:19:52Z</time>
      </trkpt>
      <trkpt lat="61.272902447663" lon="12.261455960937">
        <ele>473.6</ele>
        <time>2020-01-01T16:19:55Z</time>
      </trkpt>
      <trkpt lat="61.273122472538" lon="12.261434587092">
        <ele>472.4</ele>
        <time>2020-01-01T16:19:59Z</time>
      </trkpt>
      <trkpt lat="61.273447103525" lon="12.261400137483">
        <ele>471.2</ele>
        <time>2020-01-01T16:20:05Z</time>
      </trkpt>
      <trkpt lat="61.273686239132" lon="12.261342134735">
        <ele>470</ele>
        <time>2020-01-01T16:20:09Z</time>
      </trkpt>
      <trkpt lat="61.273911460785" lon="12.261272313508">
        <ele>469</ele>
        <time>2020-01-01T16:20:13Z</time>
      </trkpt>
      <trkpt lat="61.27411891281" lon="12.261181537531">
        <ele>468</ele>
        <time>2020-01-01T16:20:17Z</time>
      </trkpt>
      <trkpt lat="61.274220082343" lon="12.261131749045">
        <ele>467.6</ele>
        <time>2020-01-01T16:20:19Z</time>
      </trkpt>
      <trkpt lat="61.274310187768" lon="12.261080619455">
        <ele>467</ele>
        <time>2020-01-01T16:20:21Z</time>
      </trkpt>
      <trkpt lat="61.274780160901" lon="12.260833437224">
        <ele>467</ele>
        <time>2020-01-01T16:20:35Z</time>
      </trkpt>
      <trkpt lat="61.275228089637" lon="12.260678623531">
        <ele>466.8</ele>
        <time>2020-01-01T16:20:46Z</time>
      </trkpt>
      <trkpt lat="61.275404528632" lon="12.260607377381">
        <ele>467.2</ele>
        <time>2020-01-01T16:20:50Z</time>
      </trkpt>
      <trkpt lat="61.275567724225" lon="12.260552811212">
        <ele>465.8</ele>
        <time>2020-01-01T16:20:53Z</time>
      </trkpt>
      <trkpt lat="61.275745336686" lon="12.260491036609">
        <ele>464.4</ele>
        <time>2020-01-01T16:20:56Z</time>
      </trkpt>
      <trkpt lat="61.275968881959" lon="12.260402020831">
        <ele>463.4</ele>
        <time>2020-01-01T16:21:00Z</time>
      </trkpt>
      <trkpt lat="61.276372973358" lon="12.260234047555">
        <ele>461</ele>
        <time>2020-01-01T16:21:09Z</time>
      </trkpt>
      <trkpt lat="61.276410691908" lon="12.260217283755">
        <ele>459.6</ele>
        <time>2020-01-01T16:21:10Z</time>
      </trkpt>
      <trkpt lat="61.276870020028" lon="12.259949817326">
        <ele>460.4</ele>
        <time>2020-01-01T16:21:24Z</time>
      </trkpt>
      <trkpt lat="61.277241422017" lon="12.259745298966">
        <ele>459</ele>
        <time>2020-01-01T16:21:33Z</time>
      </trkpt>
      <trkpt lat="61.277695301902" lon="12.259501469495">
        <ele>459</ele>
        <time>2020-01-01T16:21:45Z</time>
      </trkpt>
      <trkpt lat="61.277906609601" lon="12.259424691291">
        <ele>458.6</ele>
        <time>2020-01-01T16:21:50Z</time>
      </trkpt>
      <trkpt lat="61.278294104838" lon="12.25918756734">
        <ele>457.6</ele>
        <time>2020-01-01T16:21:59Z</time>
      </trkpt>
      <trkpt lat="61.278569785529" lon="12.258991514699">
        <ele>457.8</ele>
        <time>2020-01-01T16:22:07Z</time>
      </trkpt>
      <trkpt lat="61.279006314881" lon="12.258603265091">
        <ele>458.4</ele>
        <time>2020-01-01T16:22:22Z</time>
      </trkpt>
      <trkpt lat="61.279085859112" lon="12.258517769711">
        <ele>458.6</ele>
        <time>2020-01-01T16:22:25Z</time>
      </trkpt>
      <trkpt lat="61.279524148663" lon="12.258203280823">
        <ele>459.4</ele>
        <time>2020-01-01T16:22:39Z</time>
      </trkpt>
      <trkpt lat="61.279950116821" lon="12.257822239649">
        <ele>457.6</ele>
        <time>2020-01-01T16:22:50Z</time>
      </trkpt>
      <trkpt lat="61.28003988697" lon="12.257749317119">
        <ele>457.4</ele>
        <time>2020-01-01T16:22:52Z</time>
      </trkpt>
      <trkpt lat="61.280361249016" lon="12.257474139342">
        <ele>456.4</ele>
        <time>2020-01-01T16:22:59Z</time>
      </trkpt>
      <trkpt lat="61.280448756052" lon="12.25741563368">
        <ele>456.2</ele>
        <time>2020-01-01T16:23:01Z</time>
      </trkpt>
      <trkpt lat="61.280665679624" lon="12.257281271823">
        <ele>455.2</ele>
        <time>2020-01-01T16:23:07Z</time>
      </trkpt>
      <trkpt lat="61.281006906773" lon="12.256824206816">
        <ele>456.4</ele>
        <time>2020-01-01T16:23:17Z</time>
      </trkpt>
      <trkpt lat="61.281306978793" lon="12.25627569528">
        <ele>455.2</ele>
        <time>2020-01-01T16:23:27Z</time>
      </trkpt>
      <trkpt lat="61.281712662753" lon="12.25587252589">
        <ele>456</ele>
        <time>2020-01-01T16:23:41Z</time>
      </trkpt>
      <trkpt lat="61.281804528377" lon="12.255781749913">
        <ele>456.4</ele>
        <time>2020-01-01T16:23:44Z</time>
      </trkpt>
      <trkpt lat="61.282243991394" lon="12.255380089265">
        <ele>456.4</ele>
        <time>2020-01-01T16:23:58Z</time>
      </trkpt>
      <trkpt lat="61.282697452184" lon="12.25518940104">
        <ele>456.4</ele>
        <time>2020-01-01T16:24:10Z</time>
      </trkpt>
      <trkpt lat="61.28313113169" lon="12.254921012602">
        <ele>456.2</ele>
        <time>2020-01-01T16:24:20Z</time>
      </trkpt>
      <trkpt lat="61.283443860379" lon="12.254709537265">
        <ele>455.4</ele>
        <time>2020-01-01T16:24:27Z</time>
      </trkpt>
      <trkpt lat="61.283686935479" lon="12.254553969201">
        <ele>454.2</ele>
        <time>2020-01-01T16:24:33Z</time>
      </trkpt>
      <trkpt lat="61.2839517197" lon="12.254370154134">
        <ele>455.4</ele>
        <time>2020-01-01T16:24:41Z</time>
      </trkpt>
      <trkpt lat="61.284333599064" lon="12.254120624971">
        <ele>456.4</ele>
        <time>2020-01-01T16:24:54Z</time>
      </trkpt>
      <trkpt lat="61.28478404237" lon="12.253830024498">
        <ele>456.8</ele>
        <time>2020-01-01T16:25:09Z</time>
      </trkpt>
      <trkpt lat="61.285013035878" lon="12.253661296851">
        <ele>456.6</ele>
        <time>2020-01-01T16:25:15Z</time>
      </trkpt>
      <trkpt lat="61.285095346136" lon="12.253601114809">
        <ele>456.4</ele>
        <time>2020-01-01T16:25:17Z</time>
      </trkpt>
      <trkpt lat="61.285540592664" lon="12.253312609811">
        <ele>456.6</ele>
        <time>2020-01-01T16:25:28Z</time>
      </trkpt>
      <trkpt lat="61.285948036823" lon="12.252936933053">
        <ele>456.4</ele>
        <time>2020-01-01T16:25:41Z</time>
      </trkpt>
      <trkpt lat="61.286397893396" lon="12.252789830708">
        <ele>457.2</ele>
        <time>2020-01-01T16:25:54Z</time>
      </trkpt>
      <trkpt lat="61.286847163236" lon="12.252571314575">
        <ele>456.4</ele>
        <time>2020-01-01T16:26:06Z</time>
      </trkpt>
      <trkpt lat="61.287248823884" lon="12.252099497424">
        <ele>457</ele>
        <time>2020-01-01T16:26:20Z</time>
      </trkpt>
      <trkpt lat="61.287417048617" lon="12.251903947697">
        <ele>457.6</ele>
        <time>2020-01-01T16:26:26Z</time>
      </trkpt>
      <trkpt lat="61.287748636581" lon="12.251435483306">
        <ele>458.6</ele>
        <time>2020-01-01T16:26:40Z</time>
      </trkpt>
      <trkpt lat="61.287908395595" lon="12.25115603076">
        <ele>459.8</ele>
        <time>2020-01-01T16:26:49Z</time>
      </trkpt>
      <trkpt lat="61.28809154011" lon="12.250852103066">
        <ele>460.8</ele>
        <time>2020-01-01T16:26:57Z</time>
      </trkpt>
      <trkpt lat="61.288401586591" lon="12.250393696955">
        <ele>462</ele>
        <time>2020-01-01T16:27:09Z</time>
      </trkpt>
      <trkpt lat="61.288730073252" lon="12.249986671891">
        <ele>463</ele>
        <time>2020-01-01T16:27:21Z</time>
      </trkpt>
      <trkpt lat="61.289061912673" lon="12.249691126097">
        <ele>464</ele>
        <time>2020-01-01T16:27:32Z</time>
      </trkpt>
      <trkpt lat="61.289488719021" lon="12.249350653319">
        <ele>464.4</ele>
        <time>2020-01-01T16:27:45Z</time>
      </trkpt>
      <trkpt lat="61.289927008572" lon="12.249032811671">
        <ele>464.8</ele>
        <time>2020-01-01T16:27:58Z</time>
      </trkpt>
      <trkpt lat="61.290211490258" lon="12.248808176751">
        <ele>464.4</ele>
        <time>2020-01-01T16:28:06Z</time>
      </trkpt>
      <trkpt lat="61.290636704045" lon="12.248489664551">
        <ele>464</ele>
        <time>2020-01-01T16:28:18Z</time>
      </trkpt>
      <trkpt lat="61.2910595709" lon="12.248142234796">
        <ele>464.4</ele>
        <time>2020-01-01T16:28:31Z</time>
      </trkpt>
      <trkpt lat="61.291480509918" lon="12.247756080663">
        <ele>464.6</ele>
        <time>2020-01-01T16:28:44Z</time>
      </trkpt>
      <trkpt lat="61.291795585539" lon="12.247697155906">
        <ele>463.6</ele>
        <time>2020-01-01T16:28:52Z</time>
      </trkpt>
      <trkpt lat="61.291947717024" lon="12.247712327145">
        <ele>462.8</ele>
        <time>2020-01-01T16:28:55Z</time>
      </trkpt>
      <trkpt lat="61.292156174877" lon="12.247775442852">
        <ele>461.8</ele>
        <time>2020-01-01T16:28:59Z</time>
      </trkpt>
      <trkpt lat="61.292351892242" lon="12.247790614091">
        <ele>461.4</ele>
        <time>2020-01-01T16:29:03Z</time>
      </trkpt>
      <trkpt lat="61.292807280869" lon="12.247709561118">
        <ele>462</ele>
        <time>2020-01-01T16:29:16Z</time>
      </trkpt>
      <trkpt lat="61.293095869686" lon="12.24760629611">
        <ele>462</ele>
        <time>2020-01-01T16:29:23Z</time>
      </trkpt>
      <trkpt lat="61.293489735167" lon="12.247446872372">
        <ele>460.8</ele>
        <time>2020-01-01T16:29:31Z</time>
      </trkpt>
      <trkpt lat="61.293961803775" lon="12.247290885213">
        <ele>460</ele>
        <time>2020-01-01T16:29:40Z</time>
      </trkpt>
      <trkpt lat="61.294022321093" lon="12.2472718583">
        <ele>459.6</ele>
        <time>2020-01-01T16:29:41Z</time>
      </trkpt>
      <trkpt lat="61.294209824196" lon="12.247202707625">
        <ele>458.6</ele>
        <time>2020-01-01T16:29:44Z</time>
      </trkpt>
      <trkpt lat="61.294385676458" lon="12.247145123972">
        <ele>457.4</ele>
        <time>2020-01-01T16:29:47Z</time>
      </trkpt>
      <trkpt lat="61.29485070427" lon="12.246995926152">
        <ele>456.4</ele>
        <time>2020-01-01T16:29:57Z</time>
      </trkpt>
      <trkpt lat="61.294890266838" lon="12.246990142641">
        <ele>456.4</ele>
        <time>2020-01-01T16:29:58Z</time>
      </trkpt>
      <trkpt lat="61.295351187519" lon="12.246811608171">
        <ele>456.8</ele>
        <time>2020-01-01T16:30:11Z</time>
      </trkpt>
      <trkpt lat="61.295554951508" lon="12.24670440367">
        <ele>457.2</ele>
        <time>2020-01-01T16:30:16Z</time>
      </trkpt>
      <trkpt lat="61.295988044281" lon="12.246583369034">
        <ele>455.2</ele>
        <time>2020-01-01T16:30:24Z</time>
      </trkpt>
      <trkpt lat="61.296149982589" lon="12.246548332692">
        <ele>454.2</ele>
        <time>2020-01-01T16:30:27Z</time>
      </trkpt>
      <trkpt lat="61.296598246601" lon="12.246475410162">
        <ele>454</ele>
        <time>2020-01-01T16:30:37Z</time>
      </trkpt>
      <trkpt lat="61.296897145155" lon="12.246403744917">
        <ele>453.2</ele>
        <time>2020-01-01T16:30:44Z</time>
      </trkpt>
      <trkpt lat="61.297029914451" lon="12.246367283652">
        <ele>452.6</ele>
        <time>2020-01-01T16:30:47Z</time>
      </trkpt>
      <trkpt lat="61.297374661998" lon="12.24626016297">
        <ele>452</ele>
        <time>2020-01-01T16:30:54Z</time>
      </trkpt>
      <trkpt lat="61.297637015468" lon="12.246168548803">
        <ele>450.8</ele>
        <time>2020-01-01T16:30:59Z</time>
      </trkpt>
      <trkpt lat="61.297828122788" lon="12.24610174506">
        <ele>449.6</ele>
        <time>2020-01-01T16:31:03Z</time>
      </trkpt>
      <trkpt lat="61.297870367564" lon="12.246089088391">
        <ele>449.4</ele>
        <time>2020-01-01T16:31:04Z</time>
      </trkpt>
      <trkpt lat="61.298312596608" lon="12.245895885596">
        <ele>450</ele>
        <time>2020-01-01T16:31:17Z</time>
      </trkpt>
      <trkpt lat="61.298485431386" lon="12.245824220351">
        <ele>450.6</ele>
        <time>2020-01-01T16:31:22Z</time>
      </trkpt>
      <trkpt lat="61.298816432617" lon="12.245695725824">
        <ele>449.4</ele>
        <time>2020-01-01T16:31:30Z</time>
      </trkpt>
      <trkpt lat="61.299279113497" lon="12.245574439731">
        <ele>450.6</ele>
        <time>2020-01-01T16:31:45Z</time>
      </trkpt>
      <trkpt lat="61.299728299518" lon="12.245392468682">
        <ele>449.8</ele>
        <time>2020-01-01T16:32:00Z</time>
      </trkpt>
      <trkpt lat="61.299843718281" lon="12.245175377472">
        <ele>449.4</ele>
        <time>2020-01-01T16:32:06Z</time>
      </trkpt>
      <trkpt lat="61.299999118707" lon="12.244898020401">
        <ele>448.4</ele>
        <time>2020-01-01T16:32:11Z</time>
      </trkpt>
      <trkpt lat="61.30016734344" lon="12.244679001354">
        <ele>447.6</ele>
        <time>2020-01-01T16:32:19Z</time>
      </trkpt>
    </trkseg>
  </trk>
</gpx>